DLH37T EDDF-LOWS
Flight info
| Callsign | DLH37T |
|---|---|
| Flight time | 0h 38m |
| Altitude | 29000 |
| Route | CINDY8S/18 CINDY Z74 HAREM DCT ASLEP DCT TAKUT DCT DINKU L603 OLETU T702 BADIT BADIT2R |
| Aircraft | A320/M-SDE2E3FGIJ1LORWXYZ/HB1 |
Departure
| Time | 2026-05-07 09:06 |
|---|---|
| Airport | Frankfurt Main Airport (EDDF) |
Arrival
| Time | 2026-05-07 09:44 |
|---|---|
| Airport | Salzburg Airport (LOWS) |
| Time | Latitude | Longitude | Altitude | Speed | Heading |
|---|---|---|---|---|---|
| 2026-05-07 08:42 | 50.03648 | 8.53948 | 349 ft | 0 kts | 159° |
| 2026-05-07 08:42 | 50.03652 | 8.53945 | 352 ft | 0 kts | 160° |
| 2026-05-07 08:59 | 50.03639 | 8.53953 | 326 ft | 8 kts | 159° |
| 2026-05-07 08:59 | 50.03575 | 8.53954 | 335 ft | 9 kts | 227° |
| 2026-05-07 09:00 | 50.03547 | 8.53853 | 336 ft | 12 kts | 249° |
| 2026-05-07 09:00 | 50.03507 | 8.53684 | 338 ft | 20 kts | 250° |
| 2026-05-07 09:00 | 50.03455 | 8.53468 | 336 ft | 22 kts | 249° |
| 2026-05-07 09:00 | 50.03398 | 8.53230 | 335 ft | 25 kts | 249° |
| 2026-05-07 09:01 | 50.03341 | 8.52989 | 335 ft | 25 kts | 249° |
| 2026-05-07 09:01 | 50.03300 | 8.52815 | 332 ft | 12 kts | 250° |
| 2026-05-07 09:01 | 50.03288 | 8.52768 | 332 ft | 0 kts | 249° |
| 2026-05-07 09:01 | 50.03288 | 8.52767 | 332 ft | 1 kts | 249° |
| 2026-05-07 09:02 | 50.03269 | 8.52692 | 334 ft | 11 kts | 249° |
| 2026-05-07 09:02 | 50.03228 | 8.52597 | 334 ft | 12 kts | 197° |
| 2026-05-07 09:02 | 50.03208 | 8.52595 | 335 ft | 0 kts | 180° |
| 2026-05-07 09:05 | 50.03125 | 8.52596 | 336 ft | 39 kts | 180° |
| 2026-05-07 09:05 | 50.02579 | 8.52599 | 335 ft | 114 kts | 180° |
| 2026-05-07 09:05 | 50.01587 | 8.52584 | 363 ft | 166 kts | 185° |
| 2026-05-07 09:06 | 50.00428 | 8.52565 | 1086 ft | 166 kts | 182° |
| 2026-05-07 09:06 | 49.99284 | 8.52581 | 1885 ft | 171 kts | 182° |
| 2026-05-07 09:06 | 49.98019 | 8.52614 | 2334 ft | 193 kts | 175° |
| 2026-05-07 09:06 | 49.96691 | 8.53357 | 2714 ft | 217 kts | 144° |
| 2026-05-07 09:07 | 49.95689 | 8.55240 | 3176 ft | 237 kts | 116° |
| 2026-05-07 09:07 | 49.94904 | 8.57509 | 4172 ft | 238 kts | 117° |
| 2026-05-07 09:07 | 49.94212 | 8.59843 | 5154 ft | 239 kts | 103° |
| 2026-05-07 09:07 | 49.93980 | 8.62465 | 5734 ft | 260 kts | 91° |
| 2026-05-07 09:08 | 49.93865 | 8.65358 | 5994 ft | 274 kts | 93° |
| 2026-05-07 09:08 | 49.93404 | 8.68236 | 6023 ft | 278 kts | 112° |
| 2026-05-07 09:08 | 49.92344 | 8.70790 | 6246 ft | 287 kts | 132° |
| 2026-05-07 09:08 | 49.90793 | 8.72753 | 7267 ft | 288 kts | 145° |
| 2026-05-07 09:09 | 49.89193 | 8.74644 | 8275 ft | 291 kts | 137° |
| 2026-05-07 09:09 | 49.87874 | 8.77064 | 9258 ft | 296 kts | 123° |
| 2026-05-07 09:09 | 49.86863 | 8.79832 | 10145 ft | 301 kts | 118° |
| 2026-05-07 09:09 | 49.85808 | 8.82783 | 10573 ft | 325 kts | 119° |
| 2026-05-07 09:10 | 49.84663 | 8.85954 | 10907 ft | 348 kts | 120° |
| 2026-05-07 09:10 | 49.83455 | 8.89281 | 11575 ft | 358 kts | 120° |
| 2026-05-07 09:10 | 49.82223 | 8.92672 | 12446 ft | 362 kts | 120° |
| 2026-05-07 09:10 | 49.80982 | 8.96083 | 13308 ft | 364 kts | 119° |
| 2026-05-07 09:11 | 49.79746 | 8.99472 | 14116 ft | 367 kts | 119° |
| 2026-05-07 09:11 | 49.78480 | 9.02936 | 14875 ft | 371 kts | 119° |
| 2026-05-07 09:11 | 49.77204 | 9.06428 | 15619 ft | 375 kts | 119° |
| 2026-05-07 09:11 | 49.76115 | 9.10110 | 16310 ft | 379 kts | 108° |
| 2026-05-07 09:12 | 49.75413 | 9.14066 | 16990 ft | 384 kts | 104° |
| 2026-05-07 09:12 | 49.74475 | 9.17955 | 17685 ft | 388 kts | 116° |
| 2026-05-07 09:12 | 49.73064 | 9.21531 | 18387 ft | 391 kts | 127° |
| 2026-05-07 09:12 | 49.71313 | 9.24714 | 18962 ft | 394 kts | 132° |
| 2026-05-07 09:13 | 49.69485 | 9.27916 | 19550 ft | 398 kts | 131° |
| 2026-05-07 09:13 | 49.67652 | 9.31147 | 20139 ft | 401 kts | 131° |
| 2026-05-07 09:13 | 49.65805 | 9.34410 | 20711 ft | 405 kts | 131° |
| 2026-05-07 09:13 | 49.63943 | 9.37707 | 21278 ft | 409 kts | 130° |
| 2026-05-07 09:14 | 49.62283 | 9.41282 | 21820 ft | 413 kts | 120° |
| 2026-05-07 09:14 | 49.61022 | 9.45279 | 22359 ft | 416 kts | 110° |
| 2026-05-07 09:14 | 49.60098 | 9.49529 | 22924 ft | 419 kts | 107° |
| 2026-05-07 09:14 | 49.59202 | 9.53759 | 23482 ft | 422 kts | 107° |
| 2026-05-07 09:15 | 49.58280 | 9.58074 | 23945 ft | 425 kts | 107° |
| 2026-05-07 09:15 | 49.57345 | 9.62414 | 24401 ft | 427 kts | 107° |
| 2026-05-07 09:15 | 49.56398 | 9.66784 | 24852 ft | 430 kts | 107° |
| 2026-05-07 09:15 | 49.55443 | 9.71166 | 25294 ft | 432 kts | 107° |
| 2026-05-07 09:16 | 49.54495 | 9.75528 | 25725 ft | 435 kts | 107° |
| 2026-05-07 09:16 | 49.53494 | 9.79939 | 26157 ft | 438 kts | 111° |
| 2026-05-07 09:16 | 49.52129 | 9.84156 | 26587 ft | 441 kts | 120° |
| 2026-05-07 09:16 | 49.50341 | 9.88026 | 27021 ft | 445 kts | 128° |
| 2026-05-07 09:17 | 49.48377 | 9.91729 | 27424 ft | 448 kts | 128° |
| 2026-05-07 09:17 | 49.46399 | 9.95466 | 27808 ft | 452 kts | 128° |
| 2026-05-07 09:17 | 49.44404 | 9.99236 | 28209 ft | 454 kts | 128° |
| 2026-05-07 09:17 | 49.42423 | 10.02977 | 28591 ft | 457 kts | 128° |
| 2026-05-07 09:18 | 49.40410 | 10.06778 | 28926 ft | 460 kts | 128° |
| 2026-05-07 09:18 | 49.38396 | 10.10583 | 29002 ft | 456 kts | 128° |
| 2026-05-07 09:18 | 49.34404 | 10.18108 | 29002 ft | 452 kts | 128° |
| 2026-05-07 09:19 | 49.30410 | 10.25591 | 29005 ft | 452 kts | 128° |
| 2026-05-07 09:19 | 49.26458 | 10.32990 | 29009 ft | 450 kts | 128° |
| 2026-05-07 09:20 | 49.22343 | 10.40204 | 29014 ft | 450 kts | 135° |
| 2026-05-07 09:20 | 49.17845 | 10.46893 | 29026 ft | 450 kts | 135° |
| 2026-05-07 09:21 | 49.13348 | 10.53562 | 29038 ft | 450 kts | 135° |
| 2026-05-07 09:21 | 49.08880 | 10.60191 | 29029 ft | 449 kts | 135° |
| 2026-05-07 09:22 | 49.04392 | 10.66824 | 29038 ft | 448 kts | 137° |
| 2026-05-07 09:22 | 48.99902 | 10.73445 | 29042 ft | 447 kts | 137° |
| 2026-05-07 09:23 | 48.95438 | 10.79977 | 29033 ft | 447 kts | 137° |
| 2026-05-07 09:23 | 48.90947 | 10.86543 | 29024 ft | 447 kts | 137° |
| 2026-05-07 09:24 | 48.86462 | 10.93110 | 29002 ft | 446 kts | 137° |
| 2026-05-07 09:24 | 48.82013 | 10.99614 | 28998 ft | 446 kts | 138° |
| 2026-05-07 09:25 | 48.77537 | 11.06121 | 29014 ft | 444 kts | 138° |
| 2026-05-07 09:25 | 48.73070 | 11.12598 | 29003 ft | 443 kts | 138° |
| 2026-05-07 09:26 | 48.68622 | 11.19029 | 28998 ft | 443 kts | 138° |
| 2026-05-07 09:26 | 48.64217 | 11.25574 | 28994 ft | 444 kts | 133° |
| 2026-05-07 09:27 | 48.60464 | 11.33029 | 28901 ft | 446 kts | 129° |
| 2026-05-07 09:27 | 48.56773 | 11.40446 | 27935 ft | 439 kts | 130° |
| 2026-05-07 09:28 | 48.54946 | 11.44107 | 27239 ft | 435 kts | 130° |
| 2026-05-07 09:28 | 48.53132 | 11.47742 | 26564 ft | 431 kts | 130° |
| 2026-05-07 09:28 | 48.51332 | 11.51345 | 25901 ft | 428 kts | 130° |
| 2026-05-07 09:28 | 48.49562 | 11.54878 | 25238 ft | 425 kts | 129° |
| 2026-05-07 09:29 | 48.47796 | 11.58463 | 24590 ft | 423 kts | 126° |
| 2026-05-07 09:29 | 48.46358 | 11.62274 | 23964 ft | 422 kts | 117° |
| 2026-05-07 09:29 | 48.45296 | 11.66392 | 23298 ft | 420 kts | 111° |
| 2026-05-07 09:29 | 48.44316 | 11.70521 | 22675 ft | 415 kts | 111° |
| 2026-05-07 09:30 | 48.43342 | 11.74590 | 22121 ft | 409 kts | 113° |
| 2026-05-07 09:30 | 48.42379 | 11.78587 | 21565 ft | 404 kts | 113° |
| 2026-05-07 09:30 | 48.41420 | 11.82537 | 21066 ft | 399 kts | 113° |
| 2026-05-07 09:30 | 48.40467 | 11.86442 | 20554 ft | 394 kts | 114° |
| 2026-05-07 09:31 | 48.39524 | 11.90301 | 20055 ft | 390 kts | 113° |
| 2026-05-07 09:31 | 48.38595 | 11.94112 | 19562 ft | 386 kts | 113° |
| 2026-05-07 09:31 | 48.37672 | 11.97898 | 19059 ft | 383 kts | 113° |
| 2026-05-07 09:31 | 48.36772 | 12.01600 | 18569 ft | 381 kts | 113° |
| 2026-05-07 09:32 | 48.35860 | 12.05338 | 18013 ft | 380 kts | 113° |
| 2026-05-07 09:32 | 48.34948 | 12.09065 | 17497 ft | 377 kts | 113° |
| 2026-05-07 09:32 | 48.34045 | 12.12753 | 16954 ft | 374 kts | 113° |
| 2026-05-07 09:32 | 48.33451 | 12.15177 | 16618 ft | 372 kts | 113° |
| 2026-05-07 09:33 | 48.32258 | 12.20030 | 15901 ft | 371 kts | 113° |
| 2026-05-07 09:33 | 48.31363 | 12.23654 | 15369 ft | 369 kts | 113° |
| 2026-05-07 09:33 | 48.30771 | 12.26052 | 15011 ft | 369 kts | 113° |
| 2026-05-07 09:33 | 48.29879 | 12.29661 | 14481 ft | 368 kts | 113° |
| 2026-05-07 09:34 | 48.28987 | 12.33258 | 13939 ft | 367 kts | 114° |
| 2026-05-07 09:34 | 48.28093 | 12.36859 | 13348 ft | 366 kts | 113° |
| 2026-05-07 09:34 | 48.27206 | 12.40438 | 12794 ft | 363 kts | 113° |
| 2026-05-07 09:34 | 48.26329 | 12.43977 | 12226 ft | 361 kts | 113° |
| 2026-05-07 09:35 | 48.25453 | 12.47498 | 11677 ft | 359 kts | 113° |
| 2026-05-07 09:35 | 48.24580 | 12.50995 | 11097 ft | 358 kts | 113° |
| 2026-05-07 09:35 | 48.23655 | 12.54455 | 10600 ft | 352 kts | 120° |
| 2026-05-07 09:35 | 48.22398 | 12.57445 | 10465 ft | 333 kts | 132° |
| 2026-05-07 09:36 | 48.20856 | 12.59911 | 10348 ft | 317 kts | 140° |
| 2026-05-07 09:36 | 48.19302 | 12.62144 | 10117 ft | 301 kts | 140° |
| 2026-05-07 09:36 | 48.17803 | 12.64291 | 9748 ft | 293 kts | 140° |
| 2026-05-07 09:36 | 48.16327 | 12.66401 | 9616 ft | 293 kts | 140° |
| 2026-05-07 09:37 | 48.14847 | 12.68508 | 9437 ft | 294 kts | 141° |
| 2026-05-07 09:37 | 48.13365 | 12.70617 | 9170 ft | 293 kts | 141° |
| 2026-05-07 09:37 | 48.11892 | 12.72718 | 8689 ft | 293 kts | 140° |
| 2026-05-07 09:37 | 48.10426 | 12.74808 | 8235 ft | 294 kts | 140° |
| 2026-05-07 09:38 | 48.08938 | 12.76931 | 7727 ft | 298 kts | 140° |
| 2026-05-07 09:38 | 48.07427 | 12.79086 | 7219 ft | 300 kts | 140° |
| 2026-05-07 09:38 | 48.05911 | 12.81242 | 6721 ft | 301 kts | 140° |
| 2026-05-07 09:38 | 48.04389 | 12.83403 | 6215 ft | 302 kts | 140° |
| 2026-05-07 09:39 | 48.02860 | 12.85572 | 5575 ft | 302 kts | 140° |
| 2026-05-07 09:39 | 48.01335 | 12.87674 | 4942 ft | 291 kts | 146° |
| 2026-05-07 09:39 | 47.99588 | 12.89024 | 4328 ft | 276 kts | 168° |
| 2026-05-07 09:39 | 47.97748 | 12.89343 | 4032 ft | 263 kts | 184° |
| 2026-05-07 09:40 | 47.95981 | 12.89749 | 3994 ft | 252 kts | 165° |
| 2026-05-07 09:40 | 47.94419 | 12.90760 | 3999 ft | 237 kts | 160° |
| 2026-05-07 09:40 | 47.92968 | 12.91742 | 3987 ft | 218 kts | 162° |
| 2026-05-07 09:40 | 47.91647 | 12.92594 | 3869 ft | 199 kts | 161° |
| 2026-05-07 09:41 | 47.90439 | 12.93362 | 3640 ft | 178 kts | 161° |
| 2026-05-07 09:41 | 47.89372 | 12.94040 | 3408 ft | 157 kts | 162° |
| 2026-05-07 09:41 | 47.88403 | 12.94653 | 3205 ft | 147 kts | 161° |
| 2026-05-07 09:41 | 47.87475 | 12.95239 | 2999 ft | 143 kts | 163° |
| 2026-05-07 09:42 | 47.86564 | 12.95816 | 2812 ft | 141 kts | 161° |
| 2026-05-07 09:42 | 47.85665 | 12.96384 | 2597 ft | 140 kts | 161° |
| 2026-05-07 09:42 | 47.84770 | 12.96950 | 2404 ft | 140 kts | 163° |
| 2026-05-07 09:42 | 47.83873 | 12.97519 | 2185 ft | 141 kts | 162° |
| 2026-05-07 09:43 | 47.82974 | 12.98088 | 2039 ft | 140 kts | 160° |
| 2026-05-07 09:43 | 47.82080 | 12.98651 | 1873 ft | 139 kts | 159° |
| 2026-05-07 09:43 | 47.81200 | 12.99215 | 1671 ft | 138 kts | 159° |
| 2026-05-07 09:43 | 47.80294 | 12.99778 | 1443 ft | 141 kts | 155° |
| 2026-05-07 09:44 | 47.79540 | 13.00264 | 1425 ft | 78 kts | 157° |
| 2026-05-07 09:44 | 47.79269 | 13.00435 | 1422 ft | 25 kts | 157° |
| 2026-05-07 09:44 | 47.79161 | 13.00500 | 1419 ft | 17 kts | 165° |
| 2026-05-07 09:44 | 47.79115 | 13.00393 | 1419 ft | 10 kts | 275° |
| 2026-05-07 09:45 | 47.79118 | 13.00342 | 1420 ft | 0 kts | 275° |
| 2026-05-07 09:45 | 47.79119 | 13.00331 | 1420 ft | 5 kts | 275° |
| 2026-05-07 09:45 | 47.79131 | 13.00271 | 1420 ft | 7 kts | 300° |
| 2026-05-07 09:46 | 47.79173 | 13.00230 | 1421 ft | 8 kts | 335° |
| 2026-05-07 09:46 | 47.79234 | 13.00191 | 1422 ft | 10 kts | 337° |
| 2026-05-07 09:46 | 47.79305 | 13.00146 | 1423 ft | 12 kts | 337° |
| 2026-05-07 09:46 | 47.79350 | 13.00045 | 1422 ft | 13 kts | 259° |
| 2026-05-07 09:47 | 47.79304 | 12.99949 | 1422 ft | 11 kts | 196° |
| 2026-05-07 09:47 | 47.79235 | 12.99978 | 1422 ft | 10 kts | 156° |
| 2026-05-07 09:47 | 47.79175 | 13.00017 | 1422 ft | 7 kts | 156° |
| 2026-05-07 09:47 | 47.79152 | 13.00014 | 1422 ft | 2 kts | 269° |
| 2026-05-07 09:48 | 47.79154 | 12.99996 | 1422 ft | 1 kts | 279° |
| 2026-05-07 09:48 | 47.79157 | 12.99971 | 1422 ft | 4 kts | 281° |
| 2026-05-07 09:48 | 47.79164 | 12.99921 | 1422 ft | 6 kts | 282° |
| 2026-05-07 09:48 | 47.79167 | 12.99898 | 1422 ft | 0 kts | 282° |